Time;durP1;ratioP1;P1;durP2;ratioP2;P2;SDS_P1;SDS_P2;PMS_P1;PMS_P2;Temp;Humidity;BMP_temperature;BMP_pressure;BME280_temperature;BME280_humidity;BME280_pressure;Samples;Min_cycle;Max_cycle;Signal;HPM_P1;HPM_P2
2023/07/22 00:01:10;;;;;;;6.13;2.60;;;;;;;-145.69;69.49;51929.50;5096711;28;20202;-84
2023/07/22 00:03:37;;;;;;;7.63;2.33;;;;;;;-145.69;69.95;51955.25;5096201;28;20198;-83
2023/07/22 00:06:06;;;;;;;2.83;1.80;;;;;;;-145.69;69.91;51935.47;5094720;28;20229;-83
2023/07/22 00:08:32;;;;;;;4.50;2.17;;;;;;;-145.69;70.06;51915.66;5096838;28;20294;-83
2023/07/22 00:10:59;;;;;;;2.60;2.10;;;;;;;-145.69;69.98;51945.34;5097851;28;20695;-83
2023/07/22 00:13:26;;;;;;;5.70;2.30;;;;;;;-145.69;69.51;51921.59;5097123;28;20234;-85
2023/07/22 00:15:53;;;;;;;3.33;2.17;;;;;;;-145.69;69.91;51905.75;5095257;28;20228;-83
2023/07/22 00:18:19;;;;;;;5.47;2.40;;;;;;;-145.69;69.36;51927.53;5091386;28;20206;-81
2023/07/22 00:20:46;;;;;;;3.00;1.87;;;;;;;-145.69;69.78;51933.47;5090849;28;20538;-82
2023/07/22 00:23:15;;;;;;;3.53;1.90;;;;;;;-145.69;69.42;51925.56;5094261;28;20275;-83
2023/07/22 00:25:41;;;;;;;6.23;2.47;;;;;;;-145.69;69.57;51931.50;5094813;28;20281;-83
2023/07/22 00:28:08;;;;;;;2.83;1.90;;;;;;;-145.69;69.96;51965.16;5094592;28;20241;-82
2023/07/22 00:30:34;;;;;;;7.80;2.10;;;;;;;-145.69;70.13;51909.72;5093767;28;20653;-84
2023/07/22 00:33:01;;;;;;;7.30;2.30;;;;;;;-145.69;69.59;51943.38;5096066;28;20210;-84
2023/07/22 00:35:27;;;;;;;3.70;2.10;;;;;;;-145.69;69.89;51961.19;5097728;28;20206;-84
2023/07/22 00:37:54;;;;;;;2.80;2.13;;;;;;;-145.69;70.01;51905.75;5097768;28;20198;-84
2023/07/22 00:40:23;;;;;;;4.43;2.10;;;;;;;-145.69;69.66;51933.47;5097697;28;20198;-84
2023/07/22 00:42:50;;;;;;;4.93;2.60;;;;;;;-145.69;69.62;51921.59;5098012;28;20202;-84
2023/07/22 00:45:17;;;;;;;7.47;2.30;;;;;;;-145.69;69.07;51957.25;5099505;28;20194;-83
2023/07/22 00:47:44;;;;;;;2.70;2.27;;;;;;;-145.69;69.27;51931.50;5101656;28;20225;-83
2023/07/22 00:50:11;;;;;;;5.03;2.10;;;;;;;-145.69;70.08;51913.69;5097858;28;20515;-83
2023/07/22 00:52:39;;;;;;;4.60;2.40;;;;;;;-145.69;69.50;51917.63;5100035;28;20212;-83
2023/07/22 00:55:06;;;;;;;4.30;2.20;;;;;;;-145.69;69.78;51929.50;5100516;28;20202;-84
2023/07/22 00:57:34;;;;;;;5.10;2.43;;;;;;;-145.69;69.80;51927.53;5095970;28;20198;-83
2023/07/22 01:00:01;;;;;;;2.93;2.00;;;;;;;-145.69;70.03;51931.50;5093613;28;20229;-83
2023/07/22 01:02:27;;;;;;;4.13;2.43;;;;;;;-145.69;71.01;51937.44;5094119;28;20197;-83
2023/07/22 01:04:54;;;;;;;5.67;2.33;;;;;;;-145.69;70.77;51933.47;5094065;28;20206;-82
2023/07/22 01:07:20;;;;;;;3.73;2.30;;;;;;;-145.69;70.08;51949.31;5092790;28;20201;-81
2023/07/22 01:09:47;;;;;;;3.27;2.20;;;;;;;-145.69;70.43;51953.28;5091365;28;20190;-81
2023/07/22 01:12:13;;;;;;;7.13;2.27;;;;;;;-145.69;71.84;51919.63;5080914;28;20224;-84
2023/07/22 01:14:42;;;;;;;5.10;2.20;;;;;;;-145.69;71.10;51953.28;5098296;28;20704;-84
2023/07/22 01:17:11;;;;;;;4.70;2.07;;;;;;;-145.69;70.75;51905.75;5094036;28;20202;-83
2023/07/22 01:19:37;;;;;;;4.13;2.20;;;;;;;-145.69;70.65;51973.06;5094646;28;20201;-83
2023/07/22 01:22:07;;;;;;;3.07;2.17;;;;;;;-145.69;70.60;51953.28;5096440;28;20206;-83
2023/07/22 01:24:35;;;;;;;3.90;2.20;;;;;;;-145.69;71.31;51905.75;5100658;28;20198;-84
2023/07/22 01:27:03;;;;;;;3.47;2.20;;;;;;;-145.69;71.94;51939.41;5098379;28;20301;-82
2023/07/22 01:29:30;;;;;;;4.87;2.07;;;;;;;-145.69;72.00;51931.50;5105927;28;20218;-83
2023/07/22 01:31:56;;;;;;;3.70;2.37;;;;;;;-145.69;71.08;51977.03;5105350;28;20202;-83
2023/07/22 01:34:24;;;;;;;3.20;2.03;;;;;;;-145.69;71.03;51953.28;5106824;28;20201;-83
2023/07/22 01:36:51;;;;;;;3.00;1.90;;;;;;;-145.69;71.35;51955.25;5107319;28;20202;-83
2023/07/22 01:39:19;;;;;;;4.67;2.20;;;;;;;-145.69;71.25;51947.34;5097946;28;20660;-83
2023/07/22 01:41:47;;;;;;;6.07;2.27;;;;;;;-145.69;72.39;51933.47;5097133;28;20679;-82
2023/07/22 01:44:14;;;;;;;3.00;2.10;;;;;;;-145.69;72.26;51965.16;5097746;28;20289;-82
2023/07/22 01:46:40;;;;;;;8.53;2.67;;;;;;;-145.69;71.86;51953.28;5099094;28;20687;-85
2023/07/22 01:49:12;;;;;;;3.57;2.30;;;;;;;-145.69;71.80;51961.19;5097916;28;20263;-83
2023/07/22 01:51:40;;;;;;;4.17;2.47;;;;;;;-145.69;72.05;51975.06;5099138;28;20280;-83
2023/07/22 01:54:07;;;;;;;3.57;2.43;;;;;;;-145.69;71.35;51947.34;5100544;28;20247;-83
2023/07/22 01:56:34;;;;;;;3.30;2.23;;;;;;;-145.69;71.84;51973.06;5090150;28;20207;-83
2023/07/22 01:59:01;;;;;;;8.03;2.07;;;;;;;-145.69;71.77;51945.34;5108648;28;20687;-84
2023/07/22 02:01:28;;;;;;;5.33;2.60;;;;;;;-145.69;71.62;51981.00;5101183;28;20201;-83
2023/07/22 02:03:55;;;;;;;3.77;2.17;;;;;;;-145.69;72.13;51951.28;5100080;28;20249;-83
2023/07/22 02:06:22;;;;;;;5.77;1.90;;;;;;;-145.69;72.19;51984.97;5099611;28;20209;-83
2023/07/22 02:08:48;;;;;;;4.17;2.43;;;;;;;-145.69;72.43;51961.19;5099061;28;20261;-83
2023/07/22 02:11:15;;;;;;;6.40;2.37;;;;;;;-145.69;72.92;51905.75;5100924;28;20267;-83
2023/07/22 02:13:41;;;;;;;3.63;2.37;;;;;;;-145.69;71.93;51957.25;5096835;28;20245;-82
2023/07/22 02:16:11;;;;;;;4.10;2.30;;;;;;;-145.69;72.54;51967.13;5097434;28;20628;-83
2023/07/22 02:18:37;;;;;;;4.97;2.37;;;;;;;-145.69;72.04;51955.25;5098965;28;20202;-83
2023/07/22 02:21:04;;;;;;;4.77;2.27;;;;;;;-145.69;73.05;51937.44;5100310;28;20197;-83
2023/07/22 02:23:30;;;;;;;5.80;2.40;;;;;;;-145.69;72.44;51931.50;5098999;28;20208;-83
2023/07/22 02:25:57;;;;;;;6.40;2.40;;;;;;;-145.69;72.12;51937.44;5098439;28;20206;-84
2023/07/22 02:28:24;;;;;;;4.40;2.50;;;;;;;-145.69;71.96;51953.28;5099229;28;20214;-83
2023/07/22 02:30:52;;;;;;;3.83;2.30;;;;;;;-145.69;72.36;51963.19;5097305;28;20293;-83
2023/07/22 02:33:21;;;;;;;3.30;2.33;;;;;;;-145.69;72.51;51951.28;5077703;28;20202;-82
2023/07/22 02:35:48;;;;;;;3.07;2.10;;;;;;;-145.69;72.07;51961.19;5075583;28;20281;-82
2023/07/22 02:38:15;;;;;;;4.47;2.17;;;;;;;-145.69;72.33;51965.16;5076488;28;20252;-83
2023/07/22 02:40:41;;;;;;;4.87;2.40;;;;;;;-145.69;72.59;51955.25;5076299;28;20245;-82
2023/07/22 02:43:08;;;;;;;4.63;2.53;;;;;;;-145.69;71.98;51957.25;5076827;28;20199;-82
2023/07/22 02:45:35;;;;;;;9.93;2.47;;;;;;;-145.69;72.34;51951.28;5074881;28;20207;-83
2023/07/22 02:48:01;;;;;;;4.80;2.30;;;;;;;-145.69;73.39;51941.41;5074698;28;20199;-82
2023/07/22 02:50:29;;;;;;;6.13;2.40;;;;;;;-145.69;72.55;51969.13;5076060;28;20202;-84
2023/07/22 02:52:56;;;;;;;4.47;2.37;;;;;;;-145.69;72.59;51969.13;5080171;28;20558;-83
2023/07/22 02:55:23;;;;;;;4.60;2.50;;;;;;;-145.69;73.11;51961.19;5078592;28;20199;-84
2023/07/22 02:57:49;;;;;;;7.03;2.10;;;;;;;-145.69;73.19;51953.28;5076990;28;20233;-84
2023/07/22 03:00:23;;;;;;;6.33;2.07;;;;;;;-145.69;73.43;51965.16;5079332;28;20276;-83
2023/07/22 03:02:50;;;;;;;5.43;2.30;;;;;;;-145.69;72.68;51921.59;5092227;28;20202;-82
2023/07/22 03:05:16;;;;;;;5.07;2.17;;;;;;;-145.69;72.83;51982.97;5095509;28;20202;-82
2023/07/22 03:07:44;;;;;;;6.23;2.40;;;;;;;-145.69;72.86;51973.06;5095677;28;20193;-83
2023/07/22 03:10:11;;;;;;;3.23;2.33;;;;;;;-145.69;72.93;51965.16;5096333;28;20267;-83
2023/07/22 03:12:38;;;;;;;5.30;2.47;;;;;;;-145.69;72.91;51957.25;5098231;28;20198;-82
2023/07/22 03:15:08;;;;;;;3.57;2.00;;;;;;;-145.69;72.86;51996.84;5096121;28;20233;-83
2023/07/22 03:17:34;;;;;;;3.03;2.37;;;;;;;-145.69;72.98;51981.00;5095724;28;20559;-83
2023/07/22 03:20:02;;;;;;;4.93;2.50;;;;;;;-145.69;73.46;51953.28;5097554;28;20209;-82
2023/07/22 03:22:28;;;;;;;2.97;2.10;;;;;;;-145.69;72.91;51933.47;5093246;28;20193;-82
2023/07/22 03:24:56;;;;;;;3.73;2.13;;;;;;;-145.69;73.91;51984.97;5094408;28;20205;-82
2023/07/22 03:27:23;;;;;;;3.00;2.30;;;;;;;-145.69;72.88;51973.06;5094362;28;20530;-82
2023/07/22 03:29:49;;;;;;;3.97;2.30;;;;;;;-145.69;71.96;51965.16;5094251;28;20228;-82
2023/07/22 03:32:16;;;;;;;3.17;2.00;;;;;;;-145.69;72.45;51984.97;5094817;28;20202;-83
2023/07/22 03:34:42;;;;;;;4.03;2.00;;;;;;;-145.69;72.18;51963.19;5094165;28;20202;-82
2023/07/22 03:37:09;;;;;;;2.97;1.83;;;;;;;-145.69;71.94;51988.91;5094660;28;20233;-82
2023/07/22 03:39:35;;;;;;;2.70;1.63;;;;;;;-145.69;72.41;51988.91;5094472;28;20197;-82
2023/07/22 03:42:04;;;;;;;10.97;2.43;;;;;;;-145.69;72.33;51941.41;5096155;28;20206;-83
2023/07/22 03:44:30;;;;;;;3.87;2.30;;;;;;;-145.69;72.88;52014.66;5095017;28;20230;-82
2023/07/22 03:46:57;;;;;;;4.97;2.17;;;;;;;-145.69;72.99;51984.97;5094053;28;20186;-82
2023/07/22 03:49:23;;;;;;;4.30;2.40;;;;;;;-145.69;73.85;51959.22;5094797;28;20248;-82
2023/07/22 03:51:50;;;;;;;3.97;1.90;;;;;;;-145.69;74.25;51969.13;5093605;28;20198;-83
2023/07/22 03:54:16;;;;;;;6.63;2.60;;;;;;;-145.69;73.98;51945.34;5095285;28;20194;-83
2023/07/22 03:56:43;;;;;;;4.20;1.90;;;;;;;-145.69;73.69;51951.28;5096820;28;20197;-82
2023/07/22 03:59:11;;;;;;;4.80;2.10;;;;;;;-145.69;73.52;51961.19;5096363;28;20194;-82
2023/07/22 04:01:37;;;;;;;3.57;2.20;;;;;;;-145.69;73.18;51963.19;5095823;28;20652;-83
2023/07/22 04:04:04;;;;;;;7.17;2.37;;;;;;;-145.69;73.70;51981.00;5096156;28;20198;-82
2023/07/22 04:06:31;;;;;;;3.10;2.17;;;;;;;-145.69;72.96;51945.34;5094141;28;20201;-82
2023/07/22 04:08:57;;;;;;;3.87;2.00;;;;;;;-145.69;73.75;51937.44;5096357;28;20210;-82
2023/07/22 04:11:24;;;;;;;4.33;2.40;;;;;;;-145.69;73.41;51965.16;5093929;28;20256;-82
2023/07/22 04:13:50;;;;;;;3.57;2.10;;;;;;;-145.69;73.85;51961.19;5093191;28;20225;-82
2023/07/22 04:16:18;;;;;;;3.40;1.90;;;;;;;-145.69;74.00;51947.34;5089015;28;20201;-82
2023/07/22 04:18:44;;;;;;;3.13;1.80;;;;;;;-145.69;73.32;51981.00;5093442;28;20205;-81
2023/07/22 04:21:11;;;;;;;5.83;2.27;;;;;;;-145.69;73.80;51969.13;5093596;28;20198;-82
2023/07/22 04:23:37;;;;;;;4.47;2.17;;;;;;;-145.69;73.31;51971.09;5093000;28;20652;-82
2023/07/22 04:26:07;;;;;;;6.33;2.50;;;;;;;-145.69;73.50;51951.28;5093661;28;20217;-81
2023/07/22 04:28:33;;;;;;;3.90;2.27;;;;;;;-145.69;73.84;51979.03;5093570;28;20202;-82
2023/07/22 04:31:00;;;;;;;3.57;2.30;;;;;;;-145.69;74.06;51975.06;5093419;28;20710;-82
2023/07/22 04:33:28;;;;;;;5.20;2.23;;;;;;;-145.69;73.84;51945.34;5094458;28;20198;-82
2023/07/22 04:35:56;;;;;;;3.57;2.23;;;;;;;-145.69;74.03;51965.16;5095453;28;20682;-81
2023/07/22 04:38:23;;;;;;;6.03;2.30;;;;;;;-145.69;74.14;51981.00;5093571;28;20255;-82
2023/07/22 04:40:49;;;;;;;4.23;2.00;;;;;;;-145.69;73.81;51957.25;5094651;28;20205;-83
2023/07/22 04:43:16;;;;;;;3.47;2.30;;;;;;;-145.69;73.85;51982.97;5100215;28;20198;-83
2023/07/22 04:45:47;;;;;;;5.17;2.60;;;;;;;-145.69;73.62;51933.47;5096864;28;20202;-82
2023/07/22 04:48:14;;;;;;;3.47;2.20;;;;;;;-145.69;73.70;51975.06;5096895;28;20221;-83
2023/07/22 04:50:44;;;;;;;4.07;2.00;;;;;;;-145.69;73.72;51963.19;5098763;28;20229;-82
2023/07/22 04:53:12;;;;;;;4.73;2.07;;;;;;;-145.69;73.68;51975.06;5094849;28;20634;-82
2023/07/22 04:55:39;;;;;;;4.70;2.17;;;;;;;-145.69;73.42;51939.41;5095796;28;20560;-82
2023/07/22 04:58:06;;;;;;;5.37;2.43;;;;;;;-145.69;72.93;51937.44;5094778;28;20222;-83
2023/07/22 05:00:33;;;;;;;2.43;2.07;;;;;;;-145.69;72.75;51981.00;5094438;28;20194;-82
2023/07/22 05:03:00;;;;;;;5.27;2.30;;;;;;;-145.69;72.91;51973.06;5095512;28;20194;-82
2023/07/22 05:05:27;;;;;;;4.50;2.20;;;;;;;-145.69;72.64;51977.03;5094447;28;20229;-82
2023/07/22 05:07:55;;;;;;;3.10;2.20;;;;;;;-145.69;72.46;51957.25;5097713;28;20215;-83
2023/07/22 05:10:21;;;;;;;7.57;2.20;;;;;;;-145.69;72.50;51973.06;5094837;28;20229;-83
2023/07/22 05:12:48;;;;;;;3.37;2.00;;;;;;;-145.69;72.08;51969.13;5097963;28;20217;-82
2023/07/22 05:15:15;;;;;;;2.57;2.07;;;;;;;-145.69;71.69;51937.44;5084081;28;20267;-82
2023/07/22 05:17:42;;;;;;;5.63;2.00;;;;;;;-145.69;71.64;51953.28;5097207;28;20243;-82
2023/07/22 05:20:10;;;;;;;3.53;2.33;;;;;;;-145.69;71.77;51949.31;5098021;28;20202;-83
2023/07/22 05:22:37;;;;;;;6.13;2.10;;;;;;;-145.69;71.71;51921.59;5099054;28;20241;-83
2023/07/22 05:25:07;;;;;;;4.50;2.20;;;;;;;-145.69;71.33;51973.06;5099539;28;20209;-83
2023/07/22 05:27:34;;;;;;;5.03;2.40;;;;;;;-145.69;71.08;51951.28;5097500;28;20226;-82
2023/07/22 05:30:01;;;;;;;6.50;2.17;;;;;;;-145.69;70.68;51935.47;5096238;28;20610;-82
2023/07/22 05:32:29;;;;;;;4.90;2.03;;;;;;;-145.69;71.20;51981.00;5097188;28;20201;-82
2023/07/22 05:34:56;;;;;;;4.00;2.10;;;;;;;-145.69;71.01;51949.31;5097702;28;20214;-82
2023/07/22 05:37:22;;;;;;;3.80;2.10;;;;;;;-145.69;70.92;51927.53;5097784;28;20289;-84
2023/07/22 05:39:49;;;;;;;2.95;2.13;;;;;;;-145.69;71.80;51965.16;5096220;28;20479;-82
2023/07/22 05:42:17;;;;;;;4.57;2.03;;;;;;;-145.69;71.29;51953.28;5096330;28;20202;-82
2023/07/22 05:44:43;;;;;;;2.65;1.55;;;;;;;-145.69;71.18;51917.63;5098224;28;20196;-83
2023/07/22 05:47:10;;;;;;;6.43;2.00;;;;;;;-145.69;70.33;51933.47;5097748;28;20204;-83
2023/07/22 05:49:36;;;;;;;4.00;1.90;;;;;;;-145.69;70.28;51955.25;5099040;28;20220;-83
2023/07/22 05:52:04;;;;;;;4.45;2.10;;;;;;;-145.69;70.41;51949.31;5099257;28;20205;-83
2023/07/22 05:54:30;;;;;;;3.10;2.00;;;;;;;-145.69;70.15;51933.47;5095004;28;20197;-82
2023/07/22 05:56:57;;;;;;;3.28;1.77;;;;;;;-145.69;70.16;51953.28;5097801;28;20198;-83
2023/07/22 05:59:25;;;;;;;3.20;1.70;;;;;;;-145.69;69.84;51933.47;5077326;28;20703;-83
2023/07/22 06:01:51;;;;;;;3.80;2.20;;;;;;;-145.69;69.77;51925.56;5077919;28;20211;-83
2023/07/22 06:04:18;;;;;;;3.75;1.92;;;;;;;-145.69;69.40;51937.44;5097195;28;20205;-83
2023/07/22 06:06:44;;;;;;;4.57;1.65;;;;;;;-145.69;68.98;51909.72;5102132;28;20209;-83
2023/07/22 06:09:11;;;;;;;2.15;1.58;;;;;;;-145.69;68.84;51943.38;5103407;28;20222;-83
2023/07/22 06:11:38;;;;;;;2.70;1.50;;;;;;;-145.69;68.76;51921.59;5102997;28;20202;-84
2023/07/22 06:14:04;;;;;;;5.00;1.88;;;;;;;-145.69;68.62;51917.63;5103585;28;20226;-82
2023/07/22 06:16:32;;;;;;;3.17;1.75;;;;;;;-145.69;68.40;51909.72;5101434;28;20205;-82
2023/07/22 06:18:59;;;;;;;2.90;1.70;;;;;;;-145.69;67.36;51907.72;5100200;28;20209;-84
2023/07/22 06:21:25;;;;;;;2.80;1.75;;;;;;;-145.69;67.15;51905.75;5100052;28;20206;-83
2023/07/22 06:23:52;;;;;;;2.60;1.60;;;;;;;-145.69;67.08;51911.69;5100774;28;20292;-82
2023/07/22 06:26:18;;;;;;;4.70;1.75;;;;;;;-145.69;66.34;51872.09;5098564;28;20212;-84
2023/07/22 06:28:44;;;;;;;1.65;1.40;;;;;;;-145.69;66.21;51882.00;5100591;28;20206;-83
2023/07/22 06:31:11;;;;;;;2.22;1.60;;;;;;;-145.69;65.83;51905.75;5099143;28;20226;-83
2023/07/22 06:33:39;;;;;;;5.28;1.90;;;;;;;-145.69;65.83;51931.50;5101163;28;20680;-82
2023/07/22 06:36:05;;;;;;;2.17;1.50;;;;;;;-145.69;64.99;51887.94;5100011;28;20202;-83
2023/07/22 06:38:32;;;;;;;3.55;1.10;;;;;;;-145.69;63.92;51885.94;5101158;28;20213;-83
2023/07/22 06:40:59;;;;;;;3.88;1.27;;;;;;;-145.69;63.14;51919.63;5098283;28;20186;-83
2023/07/22 06:43:25;;;;;;;2.10;1.30;;;;;;;-145.69;61.59;51880.00;5098652;28;20202;-83
2023/07/22 06:45:52;;;;;;;2.17;1.40;;;;;;;-145.69;58.57;51880.00;5097933;28;20221;-83
2023/07/22 06:48:18;;;;;;;1.75;1.20;;;;;;;-145.69;56.22;51891.88;5095972;28;20538;-82
2023/07/22 06:50:49;;;;;;;2.40;1.23;;;;;;;-145.69;50.85;51870.13;5097897;28;20597;-83
2023/07/22 06:53:16;;;;;;;2.22;1.30;;;;;;;-145.69;52.27;51868.13;5096154;28;20202;-83
2023/07/22 06:55:49;;;;;;;1.65;1.23;;;;;;;-145.69;51.95;51882.00;5097609;28;20198;-82
2023/07/22 06:58:16;;;;;;;1.90;1.08;;;;;;;-145.69;51.83;51854.28;5096360;28;20202;-83
2023/07/22 07:00:42;;;;;;;3.20;1.25;;;;;;;-145.69;49.20;51874.06;5096913;28;20614;-83
2023/07/22 07:03:09;;;;;;;1.85;1.10;;;;;;;-145.69;49.58;51832.50;5095019;28;20205;-83
2023/07/22 07:05:36;;;;;;;1.92;0.93;;;;;;;-145.69;46.97;51868.13;5093459;28;20198;-83
2023/07/22 07:08:04;;;;;;;2.05;1.23;;;;;;;-145.69;45.13;51848.34;5095809;28;20297;-83
2023/07/22 07:10:30;;;;;;;1.58;1.10;;;;;;;-145.69;46.61;51838.44;5095061;28;20254;-84
2023/07/22 07:12:57;;;;;;;2.25;1.33;;;;;;;-145.69;45.88;51854.28;5095687;28;20229;-83
2023/07/22 07:15:24;;;;;;;3.08;1.27;;;;;;;-145.69;44.95;51848.34;5095976;28;20197;-83
2023/07/22 07:17:50;;;;;;;1.17;0.90;;;;;;;-145.69;43.29;51872.09;5097127;28;20588;-83
2023/07/22 07:20:17;;;;;;;4.47;1.20;;;;;;;-145.69;44.05;51848.34;5095430;28;20210;-84
2023/07/22 07:22:44;;;;;;;2.65;1.30;;;;;;;-145.69;45.01;51806.75;5096435;28;20205;-84
2023/07/22 07:25:12;;;;;;;3.08;1.38;;;;;;;-145.69;42.46;51862.19;5097183;28;20212;-83
2023/07/22 07:27:38;;;;;;;1.60;1.10;;;;;;;-145.69;43.35;51854.28;5095440;28;20233;-84
2023/07/22 07:30:07;;;;;;;2.88;1.15;;;;;;;-145.69;42.43;51818.63;5094381;28;20226;-84
2023/07/22 07:32:34;;;;;;;6.60;1.35;;;;;;;-145.69;42.11;51822.59;5094814;28;20654;-83
2023/07/22 07:35:00;;;;;;;2.63;1.10;;;;;;;-145.69;42.05;51822.59;5091975;28;20205;-83
2023/07/22 07:37:27;;;;;;;2.05;1.10;;;;;;;-145.69;41.54;51802.78;5094713;28;20197;-83
2023/07/22 07:39:53;;;;;;;3.88;1.20;;;;;;;-145.69;39.94;51820.59;5094976;28;20194;-84
2023/07/22 07:42:21;;;;;;;1.17;0.85;;;;;;;-145.69;40.61;51826.56;5094633;28;20205;-84
2023/07/22 07:44:47;;;;;;;1.40;0.93;;;;;;;-145.69;38.36;51810.72;5094491;28;20204;-82
2023/07/22 07:47:14;;;;;;;3.17;1.10;;;;;;;-145.69;38.78;51826.56;5094718;28;20202;-84
2023/07/22 07:49:41;;;;;;;3.03;0.93;;;;;;;-145.69;38.63;51808.72;5095026;28;20581;-82
2023/07/22 07:52:07;;;;;;;3.33;1.10;;;;;;;-145.69;38.54;51788.94;5095417;28;20672;-84
2023/07/22 07:54:34;;;;;;;3.40;1.10;;;;;;;-145.69;38.77;51783.00;5094993;28;20226;-84
2023/07/22 07:57:00;;;;;;;2.55;1.30;;;;;;;-145.69;38.87;51822.59;5096632;28;20206;-84
2023/07/22 07:59:28;;;;;;;1.42;1.00;;;;;;;-145.69;38.86;51786.94;5094283;28;20197;-84
2023/07/22 08:01:55;;;;;;;1.65;1.05;;;;;;;-145.69;37.97;51775.06;5090268;28;20668;-85
2023/07/22 08:04:21;;;;;;;1.10;0.90;;;;;;;-145.69;37.81;51790.91;5093724;28;20194;-83
2023/07/22 08:06:48;;;;;;;1.10;1.00;;;;;;;-145.69;36.56;51790.91;5094302;28;20202;-84
2023/07/22 08:09:18;;;;;;;4.38;0.82;;;;;;;-145.69;37.78;51779.03;5094057;28;20579;-84
2023/07/22 08:11:45;;;;;;;2.47;0.95;;;;;;;-145.69;37.99;51810.72;5093339;28;20226;-84
2023/07/22 08:14:12;;;;;;;2.03;1.13;;;;;;;-145.69;38.13;51802.78;5093931;28;20230;-83
2023/07/22 08:16:39;;;;;;;2.72;1.00;;;;;;;-145.69;37.55;51794.88;5092713;28;20209;-84
2023/07/22 08:19:06;;;;;;;1.63;1.00;;;;;;;-145.69;37.94;51779.03;5093744;28;20624;-83
2023/07/22 08:21:32;;;;;;;1.80;1.10;;;;;;;-145.69;37.10;51818.63;5094306;28;20201;-83
2023/07/22 08:23:59;;;;;;;4.13;1.00;;;;;;;-145.69;37.32;51755.25;5093897;28;20197;-84
2023/07/22 08:26:25;;;;;;;2.25;1.23;;;;;;;-145.69;37.98;51775.06;5094106;28;20197;-84
2023/07/22 08:28:52;;;;;;;3.55;1.20;;;;;;;-145.69;36.38;51777.03;5093694;28;20194;-84
2023/07/22 08:31:18;;;;;;;3.83;0.90;;;;;;;-145.69;37.34;51759.22;5093393;28;20230;-83
2023/07/22 08:33:46;;;;;;;1.80;0.90;;;;;;;-145.69;36.28;51794.88;5093089;28;20186;-83
2023/07/22 08:36:13;;;;;;;1.60;1.23;;;;;;;-145.69;36.21;51783.00;5093588;28;20208;-83
2023/07/22 08:38:40;;;;;;;2.03;1.13;;;;;;;-145.69;37.32;51767.16;5093323;28;20292;-84
2023/07/22 08:41:06;;;;;;;2.92;0.98;;;;;;;-145.69;35.54;51759.22;5094284;28;20213;-84
2023/07/22 08:43:35;;;;;;;2.28;1.13;;;;;;;-145.69;35.78;51735.47;5093680;28;20198;-84
2023/07/22 08:46:02;;;;;;;3.03;1.05;;;;;;;-145.69;35.36;51715.66;5093015;28;20206;-84
2023/07/22 08:48:32;;;;;;;3.22;1.10;;;;;;;-145.69;35.03;51747.34;5093745;28;20198;-85
2023/07/22 08:51:04;;;;;;;1.92;1.23;;;;;;;-145.69;34.62;51739.44;5092615;28;20308;-84
2023/07/22 08:53:33;;;;;;;1.98;0.98;;;;;;;-145.69;34.56;51701.81;5093079;28;20235;-84
2023/07/22 08:55:59;;;;;;;1.00;0.90;;;;;;;-145.69;33.77;51747.34;5093176;28;20200;-83
2023/07/22 08:58:26;;;;;;;3.30;1.27;;;;;;;-145.69;34.06;51721.59;5094179;28;20206;-84
2023/07/22 09:00:54;;;;;;;1.45;0.90;;;;;;;-145.69;34.37;51731.50;5094271;28;20202;-83
2023/07/22 09:03:21;;;;;;;2.42;1.30;;;;;;;-145.69;34.47;51723.59;5093973;28;20190;-84
2023/07/22 09:05:48;;;;;;;5.63;1.30;;;;;;;-145.69;34.76;51723.59;5094699;28;20202;-84
2023/07/22 09:08:17;;;;;;;1.02;0.90;;;;;;;-145.69;34.72;51745.38;5093234;28;20213;-84
2023/07/22 09:10:44;;;;;;;3.60;1.10;;;;;;;-145.69;35.08;51751.31;5093655;28;20354;-84
2023/07/22 09:13:13;;;;;;;1.63;1.02;;;;;;;-145.69;35.29;51729.53;5092790;28;20612;-83
2023/07/22 09:15:41;;;;;;;1.33;0.90;;;;;;;-145.69;36.01;51747.34;5093658;28;20262;-85
2023/07/22 09:18:07;;;;;;;2.65;1.20;;;;;;;-145.69;35.05;51727.53;5093495;28;20198;-84
2023/07/22 09:20:34;;;;;;;4.57;1.05;;;;;;;-145.69;35.44;51733.50;5094075;28;20285;-84
2023/07/22 09:23:01;;;;;;;2.85;1.10;;;;;;;-145.69;35.12;51743.38;5093379;28;20198;-84
2023/07/22 09:25:30;;;;;;;2.45;1.17;;;;;;;-145.69;34.79;51697.84;5091230;28;20241;-84
2023/07/22 09:28:07;;;;;;;1.75;1.00;;;;;;;-145.69;33.92;51739.44;5092651;28;20202;-83
2023/07/22 09:30:34;;;;;;;2.22;1.00;;;;;;;-145.69;36.20;51719.63;5092973;28;20699;-85
2023/07/22 09:33:04;;;;;;;1.95;1.05;;;;;;;-145.69;34.62;51680.03;5092729;28;20206;-84
2023/07/22 09:35:33;;;;;;;5.68;1.23;;;;;;;-145.69;34.34;51689.94;5092031;28;20226;-83
2023/07/22 09:38:00;;;;;;;2.03;1.20;;;;;;;-145.69;32.85;51693.88;5092924;28;20664;-85
2023/07/22 09:40:28;;;;;;;2.50;1.02;;;;;;;-145.69;31.53;51699.81;5093032;28;20213;-83
2023/07/22 09:42:56;;;;;;;2.67;1.00;;;;;;;-145.69;31.32;51683.97;5092449;28;20209;-84
2023/07/22 09:45:24;;;;;;;2.15;1.08;;;;;;;-145.69;31.85;51640.44;5092684;28;20323;-85
2023/07/22 09:47:52;;;;;;;1.65;0.93;;;;;;;-145.69;31.81;51672.09;5092524;28;20202;-83
2023/07/22 09:50:22;;;;;;;1.58;1.00;;;;;;;-145.69;31.47;51719.63;5092460;28;20205;-84
2023/07/22 09:52:50;;;;;;;1.63;1.00;;;;;;;-145.69;31.50;51695.88;5093022;28;20565;-84
2023/07/22 09:55:19;;;;;;;1.63;0.90;;;;;;;-145.69;31.63;51683.97;5077827;28;20203;-84
2023/07/22 09:57:49;;;;;;;1.50;0.90;;;;;;;-145.69;31.15;51701.81;5074083;28;20203;-85
2023/07/22 10:00:20;;;;;;;1.15;0.85;;;;;;;-145.69;31.73;51723.59;5076103;28;20234;-84
2023/07/22 10:02:49;;;;;;;4.22;1.27;;;;;;;-145.69;32.26;51713.69;5076017;28;20256;-83
2023/07/22 10:05:17;;;;;;;2.22;1.10;;;;;;;-145.69;32.32;51717.66;5093600;28;20193;-84
2023/07/22 10:07:46;;;;;;;2.15;1.23;;;;;;;-145.69;32.29;51699.81;5096255;28;20198;-84
2023/07/22 10:10:13;;;;;;;2.63;1.30;;;;;;;-145.69;32.44;51695.88;5095856;28;20233;-85
2023/07/22 10:12:42;;;;;;;3.45;1.40;;;;;;;-145.69;32.58;51689.94;5096817;28;20684;-85
2023/07/22 10:15:11;;;;;;;2.15;1.17;;;;;;;-145.69;32.34;51709.72;5095089;28;20766;-84
2023/07/22 10:17:42;;;;;;;2.70;1.30;;;;;;;-145.69;32.40;51695.88;5095802;28;20293;-85
2023/07/22 10:20:10;;;;;;;1.60;1.23;;;;;;;-145.69;32.66;51687.94;5096381;28;20195;-85
2023/07/22 10:22:38;;;;;;;4.10;1.20;;;;;;;-145.69;32.69;51711.72;5096089;28;20809;-85
2023/07/22 10:25:07;;;;;;;2.42;1.08;;;;;;;-145.69;31.55;51672.09;5096369;28;20574;-84
2023/07/22 10:27:35;;;;;;;1.55;1.20;;;;;;;-145.69;31.77;51676.06;5096396;28;20202;-85
2023/07/22 10:30:02;;;;;;;2.88;1.15;;;;;;;-145.69;31.48;51672.09;5096073;28;20210;-86
2023/07/22 10:32:35;;;;;;;1.95;1.10;;;;;;;-145.69;30.93;51668.16;5095488;28;20229;-85
2023/07/22 10:35:03;;;;;;;1.55;1.13;;;;;;;-145.69;31.56;51660.22;5096186;28;20197;-85
2023/07/22 10:37:33;;;;;;;2.10;0.98;;;;;;;-145.69;30.77;51644.38;5094207;28;20656;-85
2023/07/22 10:40:16;;;;;;;1.67;1.08;;;;;;;-145.69;31.36;51683.97;5096806;28;20586;-85
2023/07/22 10:42:42;;;;;;;1.88;1.20;;;;;;;-145.69;30.96;51701.81;5090776;28;20206;-85
2023/07/22 10:45:24;;;;;;;1.83;1.25;;;;;;;-145.69;31.75;51680.03;5092323;28;20676;-84
2023/07/22 10:48:02;;;;;;;1.92;1.10;;;;;;;-145.69;30.80;51670.13;5096194;28;20656;-84
2023/07/22 10:50:41;;;;;;;2.13;1.23;;;;;;;-145.69;30.80;51654.28;5096454;28;20602;-86
2023/07/22 10:53:09;;;;;;;3.45;1.10;;;;;;;-145.69;30.63;51672.09;5095912;28;20229;-85
2023/07/22 10:56:23;;;;;;;2.80;1.27;;;;;;;-145.69;30.37;51660.22;5095767;28;20209;-85
2023/07/22 10:59:00;;;;;;;2.58;1.50;;;;;;;-145.69;31.17;51680.03;5095158;28;20660;-84
2023/07/22 11:01:38;;;;;;;3.97;1.52;;;;;;;-145.69;31.86;51683.97;5089878;28;20202;-85
2023/07/22 11:04:30;;;;;;;1.98;1.40;;;;;;;-145.69;32.50;51685.97;5094702;28;20679;-84
2023/07/22 11:06:59;;;;;;;3.63;1.27;;;;;;;-145.69;32.45;51689.94;5096031;28;20201;-84
2023/07/22 11:09:43;;;;;;;2.05;1.27;;;;;;;-145.69;32.03;51678.03;5094652;28;20232;-84
2023/07/22 11:12:13;;;;;;;1.88;1.50;;;;;;;-145.69;31.44;51693.88;5094878;28;20259;-84
2023/07/22 11:14:45;;;;;;;2.28;1.45;;;;;;;-145.69;31.59;51670.13;5095015;28;20229;-83
2023/07/22 11:17:12;;;;;;;2.08;1.48;;;;;;;-145.69;31.12;51695.88;5089316;28;20712;-85
2023/07/22 11:19:40;;;;;;;2.75;1.35;;;;;;;-145.69;31.32;51699.81;5082090;28;20209;-84